sensor_id;sensor_type;location;lat;lon;timestamp;temperature;humidity
52211;DHT22;38179;52.756;6.906;2023-04-03T00:00:43;3.10;99.90
52211;DHT22;38179;52.756;6.906;2023-04-03T00:03:08;3.00;99.90
52211;DHT22;38179;52.756;6.906;2023-04-03T00:05:34;3.00;99.90
52211;DHT22;38179;52.756;6.906;2023-04-03T00:08:01;3.00;99.90
52211;DHT22;38179;52.756;6.906;2023-04-03T00:10:33;3.00;99.90
52211;DHT22;38179;52.756;6.906;2023-04-03T00:12:59;3.00;99.90
52211;DHT22;38179;52.756;6.906;2023-04-03T00:15:24;2.90;99.90
52211;DHT22;38179;52.756;6.906;2023-04-03T00:17:50;2.90;99.90
52211;DHT22;38179;52.756;6.906;2023-04-03T00:20:16;2.80;99.90
52211;DHT22;38179;52.756;6.906;2023-04-03T00:22:42;2.80;99.90
52211;DHT22;38179;52.756;6.906;2023-04-03T00:25:07;2.80;99.90
52211;DHT22;38179;52.756;6.906;2023-04-03T00:27:35;2.80;99.90
52211;DHT22;38179;52.756;6.906;2023-04-03T00:30:01;2.80;99.90
52211;DHT22;38179;52.756;6.906;2023-04-03T00:32:26;2.70;99.90
52211;DHT22;38179;52.756;6.906;2023-04-03T00:34:52;2.70;99.90
52211;DHT22;38179;52.756;6.906;2023-04-03T00:37:18;2.70;99.90
52211;DHT22;38179;52.756;6.906;2023-04-03T00:39:43;2.70;99.90
52211;DHT22;38179;52.756;6.906;2023-04-03T00:42:09;2.60;99.90
52211;DHT22;38179;52.756;6.906;2023-04-03T00:47:03;2.60;99.90
52211;DHT22;38179;52.756;6.906;2023-04-03T00:49:31;2.60;99.90
52211;DHT22;38179;52.756;6.906;2023-04-03T00:51:57;2.50;99.90
52211;DHT22;38179;52.756;6.906;2023-04-03T00:54:23;2.50;99.90
52211;DHT22;38179;52.756;6.906;2023-04-03T00:56:50;2.50;99.90
52211;DHT22;38179;52.756;6.906;2023-04-03T00:59:18;2.50;99.90
52211;DHT22;38179;52.756;6.906;2023-04-03T01:01:48;2.50;99.90
52211;DHT22;38179;52.756;6.906;2023-04-03T01:04:38;2.40;99.90
52211;DHT22;38179;52.756;6.906;2023-04-03T01:07:04;2.40;99.90
52211;DHT22;38179;52.756;6.906;2023-04-03T01:09:31;2.40;99.90
52211;DHT22;38179;52.756;6.906;2023-04-03T01:15:04;2.40;99.90
52211;DHT22;38179;52.756;6.906;2023-04-03T01:17:37;2.40;99.90
52211;DHT22;38179;52.756;6.906;2023-04-03T01:20:22;2.30;99.90
52211;DHT22;38179;52.756;6.906;2023-04-03T01:28:07;2.30;99.90
52211;DHT22;38179;52.756;6.906;2023-04-03T01:30:41;2.20;99.90
52211;DHT22;38179;52.756;6.906;2023-04-03T01:33:08;2.30;99.90
52211;DHT22;38179;52.756;6.906;2023-04-03T01:35:34;2.20;99.90
52211;DHT22;38179;52.756;6.906;2023-04-03T01:37:59;2.20;99.90
52211;DHT22;38179;52.756;6.906;2023-04-03T01:40:25;2.20;99.90
52211;DHT22;38179;52.756;6.906;2023-04-03T01:42:51;2.20;99.90
52211;DHT22;38179;52.756;6.906;2023-04-03T01:45:17;2.10;99.90
52211;DHT22;38179;52.756;6.906;2023-04-03T01:47:43;2.10;99.90
52211;DHT22;38179;52.756;6.906;2023-04-03T01:50:08;2.10;99.90
52211;DHT22;38179;52.756;6.906;2023-04-03T01:52:34;2.00;99.90
52211;DHT22;38179;52.756;6.906;2023-04-03T01:55:00;2.10;99.90
52211;DHT22;38179;52.756;6.906;2023-04-03T01:57:26;2.00;99.90
52211;DHT22;38179;52.756;6.906;2023-04-03T01:59:51;2.00;99.90
52211;DHT22;38179;52.756;6.906;2023-04-03T02:02:17;2.00;99.90
52211;DHT22;38179;52.756;6.906;2023-04-03T02:04:44;2.00;99.90
52211;DHT22;38179;52.756;6.906;2023-04-03T02:07:10;1.90;99.90
52211;DHT22;38179;52.756;6.906;2023-04-03T02:09:35;1.90;99.90
52211;DHT22;38179;52.756;6.906;2023-04-03T02:12:01;1.90;99.90
52211;DHT22;38179;52.756;6.906;2023-04-03T02:14:27;1.90;99.90
52211;DHT22;38179;52.756;6.906;2023-04-03T02:16:54;1.90;99.90
52211;DHT22;38179;52.756;6.906;2023-04-03T02:19:19;1.90;99.90
52211;DHT22;38179;52.756;6.906;2023-04-03T02:21:45;1.90;99.90
52211;DHT22;38179;52.756;6.906;2023-04-03T02:24:11;1.80;99.90
52211;DHT22;38179;52.756;6.906;2023-04-03T02:26:36;1.80;99.90
52211;DHT22;38179;52.756;6.906;2023-04-03T02:29:02;1.80;99.90
52211;DHT22;38179;52.756;6.906;2023-04-03T02:31:28;1.80;99.90
52211;DHT22;38179;52.756;6.906;2023-04-03T02:33:54;1.80;99.90
52211;DHT22;38179;52.756;6.906;2023-04-03T02:36:19;1.70;99.90
52211;DHT22;38179;52.756;6.906;2023-04-03T02:38:45;1.70;99.90
52211;DHT22;38179;52.756;6.906;2023-04-03T02:41:11;1.70;99.90
52211;DHT22;38179;52.756;6.906;2023-04-03T02:43:37;1.70;99.90
52211;DHT22;38179;52.756;6.906;2023-04-03T02:46:03;1.60;99.90
52211;DHT22;38179;52.756;6.906;2023-04-03T02:48:30;1.60;99.90
52211;DHT22;38179;52.756;6.906;2023-04-03T02:50:56;1.60;99.90
52211;DHT22;38179;52.756;6.906;2023-04-03T02:53:22;1.60;99.90
52211;DHT22;38179;52.756;6.906;2023-04-03T02:55:48;1.60;99.90
52211;DHT22;38179;52.756;6.906;2023-04-03T02:58:14;1.50;99.90
52211;DHT22;38179;52.756;6.906;2023-04-03T03:00:39;1.50;99.90
52211;DHT22;38179;52.756;6.906;2023-04-03T03:03:05;1.50;99.90
52211;DHT22;38179;52.756;6.906;2023-04-03T03:05:31;1.50;99.90
52211;DHT22;38179;52.756;6.906;2023-04-03T03:07:57;1.50;99.90
52211;DHT22;38179;52.756;6.906;2023-04-03T03:10:23;1.50;99.90
52211;DHT22;38179;52.756;6.906;2023-04-03T03:12:48;1.40;99.90
52211;DHT22;38179;52.756;6.906;2023-04-03T03:15:14;1.40;99.90
52211;DHT22;38179;52.756;6.906;2023-04-03T03:17:42;1.40;99.90
52211;DHT22;38179;52.756;6.906;2023-04-03T03:20:08;1.40;99.90
52211;DHT22;38179;52.756;6.906;2023-04-03T03:22:34;1.30;99.90
52211;DHT22;38179;52.756;6.906;2023-04-03T03:25:00;1.30;99.90
52211;DHT22;38179;52.756;6.906;2023-04-03T03:27:27;1.30;99.90
52211;DHT22;38179;52.756;6.906;2023-04-03T03:29:53;1.20;99.90
52211;DHT22;38179;52.756;6.906;2023-04-03T03:32:18;1.20;99.90
52211;DHT22;38179;52.756;6.906;2023-04-03T03:34:44;1.20;99.90
52211;DHT22;38179;52.756;6.906;2023-04-03T03:37:10;1.20;99.90
52211;DHT22;38179;52.756;6.906;2023-04-03T03:39:36;1.10;99.90
52211;DHT22;38179;52.756;6.906;2023-04-03T03:42:02;1.10;99.90
52211;DHT22;38179;52.756;6.906;2023-04-03T03:44:27;1.10;99.90
52211;DHT22;38179;52.756;6.906;2023-04-03T03:46:54;1.10;99.90
52211;DHT22;38179;52.756;6.906;2023-04-03T03:49:20;1.20;99.90
52211;DHT22;38179;52.756;6.906;2023-04-03T03:51:46;1.10;99.90
52211;DHT22;38179;52.756;6.906;2023-04-03T03:54:12;1.10;99.90
52211;DHT22;38179;52.756;6.906;2023-04-03T03:56:38;1.10;99.90
52211;DHT22;38179;52.756;6.906;2023-04-03T03:59:04;1.00;99.90
52211;DHT22;38179;52.756;6.906;2023-04-03T04:01:29;1.00;99.90
52211;DHT22;38179;52.756;6.906;2023-04-03T04:03:56;1.00;99.90
52211;DHT22;38179;52.756;6.906;2023-04-03T04:06:21;0.90;99.90
52211;DHT22;38179;52.756;6.906;2023-04-03T04:08:47;0.90;99.90
52211;DHT22;38179;52.756;6.906;2023-04-03T04:11:13;0.90;99.90
52211;DHT22;38179;52.756;6.906;2023-04-03T04:13:40;0.90;99.90
52211;DHT22;38179;52.756;6.906;2023-04-03T04:16:06;0.80;99.90
52211;DHT22;38179;52.756;6.906;2023-04-03T04:18:32;0.80;99.90
52211;DHT22;38179;52.756;6.906;2023-04-03T04:20:58;0.70;99.90
52211;DHT22;38179;52.756;6.906;2023-04-03T04:23:23;0.70;99.90
52211;DHT22;38179;52.756;6.906;2023-04-03T04:25:49;0.70;99.90
52211;DHT22;38179;52.756;6.906;2023-04-03T04:28:15;0.60;99.90
52211;DHT22;38179;52.756;6.906;2023-04-03T04:30:41;0.60;99.90
52211;DHT22;38179;52.756;6.906;2023-04-03T04:33:07;0.60;99.90
52211;DHT22;38179;52.756;6.906;2023-04-03T04:35:33;0.60;99.90
52211;DHT22;38179;52.756;6.906;2023-04-03T04:37:59;0.60;99.90
52211;DHT22;38179;52.756;6.906;2023-04-03T04:40:25;0.50;99.90
52211;DHT22;38179;52.756;6.906;2023-04-03T04:42:51;0.50;99.90
52211;DHT22;38179;52.756;6.906;2023-04-03T04:45:17;0.50;99.90
52211;DHT22;38179;52.756;6.906;2023-04-03T04:47:43;0.50;99.90
52211;DHT22;38179;52.756;6.906;2023-04-03T04:50:09;0.50;99.90
52211;DHT22;38179;52.756;6.906;2023-04-03T04:52:35;0.50;99.90
52211;DHT22;38179;52.756;6.906;2023-04-03T04:55:00;0.50;99.90
52211;DHT22;38179;52.756;6.906;2023-04-03T04:57:26;0.50;99.90
52211;DHT22;38179;52.756;6.906;2023-04-03T04:59:52;0.50;99.90
52211;DHT22;38179;52.756;6.906;2023-04-03T05:02:17;0.50;99.90
52211;DHT22;38179;52.756;6.906;2023-04-03T05:04:43;0.50;99.90
52211;DHT22;38179;52.756;6.906;2023-04-03T05:07:09;0.40;99.90
52211;DHT22;38179;52.756;6.906;2023-04-03T05:09:35;0.50;99.90
52211;DHT22;38179;52.756;6.906;2023-04-03T05:12:01;0.40;99.90
52211;DHT22;38179;52.756;6.906;2023-04-03T05:14:28;0.40;99.90
52211;DHT22;38179;52.756;6.906;2023-04-03T05:16:54;0.40;99.90
52211;DHT22;38179;52.756;6.906;2023-04-03T05:19:20;0.40;99.90
52211;DHT22;38179;52.756;6.906;2023-04-03T05:21:49;0.40;99.90
52211;DHT22;38179;52.756;6.906;2023-04-03T05:24:15;0.40;99.90
52211;DHT22;38179;52.756;6.906;2023-04-03T05:26:41;0.40;99.90
52211;DHT22;38179;52.756;6.906;2023-04-03T05:29:07;0.40;99.90
52211;DHT22;38179;52.756;6.906;2023-04-03T05:31:33;0.40;99.90
52211;DHT22;38179;52.756;6.906;2023-04-03T05:33:59;0.40;99.90
52211;DHT22;38179;52.756;6.906;2023-04-03T05:36:24;0.50;99.90
52211;DHT22;38179;52.756;6.906;2023-04-03T05:38:51;0.50;99.90
52211;DHT22;38179;52.756;6.906;2023-04-03T05:41:17;0.50;99.90
52211;DHT22;38179;52.756;6.906;2023-04-03T05:43:43;0.50;99.90
52211;DHT22;38179;52.756;6.906;2023-04-03T05:46:13;0.50;99.90
52211;DHT22;38179;52.756;6.906;2023-04-03T05:48:39;0.50;99.90
52211;DHT22;38179;52.756;6.906;2023-04-03T05:51:05;0.60;99.90
52211;DHT22;38179;52.756;6.906;2023-04-03T05:53:33;0.60;99.90
52211;DHT22;38179;52.756;6.906;2023-04-03T05:55:59;0.60;99.90
52211;DHT22;38179;52.756;6.906;2023-04-03T05:58:25;0.60;99.90
52211;DHT22;38179;52.756;6.906;2023-04-03T06:00:51;0.60;99.90
52211;DHT22;38179;52.756;6.906;2023-04-03T06:03:16;0.60;99.90
52211;DHT22;38179;52.756;6.906;2023-04-03T06:05:42;0.70;99.90
52211;DHT22;38179;52.756;6.906;2023-04-03T06:08:08;0.60;99.90
52211;DHT22;38179;52.756;6.906;2023-04-03T06:10:34;0.70;99.90
52211;DHT22;38179;52.756;6.906;2023-04-03T06:13:00;0.70;99.90
52211;DHT22;38179;52.756;6.906;2023-04-03T06:15:26;0.70;99.90
52211;DHT22;38179;52.756;6.906;2023-04-03T06:17:52;0.80;99.90
52211;DHT22;38179;52.756;6.906;2023-04-03T06:20:18;0.80;99.90
52211;DHT22;38179;52.756;6.906;2023-04-03T06:22:44;0.80;99.90
52211;DHT22;38179;52.756;6.906;2023-04-03T06:25:09;0.80;99.90
52211;DHT22;38179;52.756;6.906;2023-04-03T06:27:35;0.90;99.90
52211;DHT22;38179;52.756;6.906;2023-04-03T06:30:01;0.90;99.90
52211;DHT22;38179;52.756;6.906;2023-04-03T06:32:27;0.90;99.90
52211;DHT22;38179;52.756;6.906;2023-04-03T06:34:53;0.90;99.90
52211;DHT22;38179;52.756;6.906;2023-04-03T06:37:20;1.00;99.90
52211;DHT22;38179;52.756;6.906;2023-04-03T06:39:45;1.00;99.90
52211;DHT22;38179;52.756;6.906;2023-04-03T06:42:11;1.00;99.90
52211;DHT22;38179;52.756;6.906;2023-04-03T06:44:37;1.10;99.90
52211;DHT22;38179;52.756;6.906;2023-04-03T06:47:03;1.10;99.90
52211;DHT22;38179;52.756;6.906;2023-04-03T06:49:28;1.10;99.90
52211;DHT22;38179;52.756;6.906;2023-04-03T06:51:54;1.20;99.90
52211;DHT22;38179;52.756;6.906;2023-04-03T06:54:21;1.20;99.90
52211;DHT22;38179;52.756;6.906;2023-04-03T06:56:47;1.30;99.90
52211;DHT22;38179;52.756;6.906;2023-04-03T06:59:13;1.30;99.90
52211;DHT22;38179;52.756;6.906;2023-04-03T07:01:40;1.30;99.90
52211;DHT22;38179;52.756;6.906;2023-04-03T07:04:06;1.40;99.90
52211;DHT22;38179;52.756;6.906;2023-04-03T07:06:33;1.40;99.90
52211;DHT22;38179;52.756;6.906;2023-04-03T07:08:59;1.50;99.90
52211;DHT22;38179;52.756;6.906;2023-04-03T07:11:25;1.60;99.90
52211;DHT22;38179;52.756;6.906;2023-04-03T07:13:51;1.60;99.90
52211;DHT22;38179;52.756;6.906;2023-04-03T07:16:17;1.70;99.90
52211;DHT22;38179;52.756;6.906;2023-04-03T07:18:44;1.80;99.90
52211;DHT22;38179;52.756;6.906;2023-04-03T07:21:10;1.90;99.90
52211;DHT22;38179;52.756;6.906;2023-04-03T07:23:36;1.90;99.90
52211;DHT22;38179;52.756;6.906;2023-04-03T07:26:02;2.00;99.90
52211;DHT22;38179;52.756;6.906;2023-04-03T07:28:27;2.00;99.90
52211;DHT22;38179;52.756;6.906;2023-04-03T07:30:59;2.10;99.90
52211;DHT22;38179;52.756;6.906;2023-04-03T07:33:25;2.20;99.90
52211;DHT22;38179;52.756;6.906;2023-04-03T07:35:50;2.20;99.90
52211;DHT22;38179;52.756;6.906;2023-04-03T07:38:16;2.30;99.90
52211;DHT22;38179;52.756;6.906;2023-04-03T07:40:48;2.40;99.90
52211;DHT22;38179;52.756;6.906;2023-04-03T07:43:15;2.40;99.90
52211;DHT22;38179;52.756;6.906;2023-04-03T07:45:41;2.50;99.90
52211;DHT22;38179;52.756;6.906;2023-04-03T07:48:07;2.50;99.90
52211;DHT22;38179;52.756;6.906;2023-04-03T07:50:33;2.60;99.90
52211;DHT22;38179;52.756;6.906;2023-04-03T07:52:58;2.70;99.90
52211;DHT22;38179;52.756;6.906;2023-04-03T07:55:24;2.80;99.90
52211;DHT22;38179;52.756;6.906;2023-04-03T07:57:50;2.90;99.90
52211;DHT22;38179;52.756;6.906;2023-04-03T08:00:16;2.90;99.90
52211;DHT22;38179;52.756;6.906;2023-04-03T08:02:43;3.00;99.90
52211;DHT22;38179;52.756;6.906;2023-04-03T08:05:10;3.10;99.90
52211;DHT22;38179;52.756;6.906;2023-04-03T08:07:36;3.20;99.90
52211;DHT22;38179;52.756;6.906;2023-04-03T08:10:02;3.30;99.90
52211;DHT22;38179;52.756;6.906;2023-04-03T08:12:28;3.40;99.90
52211;DHT22;38179;52.756;6.906;2023-04-03T08:14:55;3.40;99.90
52211;DHT22;38179;52.756;6.906;2023-04-03T08:17:21;3.50;99.90
52211;DHT22;38179;52.756;6.906;2023-04-03T08:19:47;3.60;99.90
52211;DHT22;38179;52.756;6.906;2023-04-03T08:22:12;3.60;99.90
52211;DHT22;38179;52.756;6.906;2023-04-03T08:24:38;3.70;99.90
52211;DHT22;38179;52.756;6.906;2023-04-03T08:27:04;3.70;99.90
52211;DHT22;38179;52.756;6.906;2023-04-03T08:29:29;3.80;99.90
52211;DHT22;38179;52.756;6.906;2023-04-03T08:31:55;3.80;99.90
52211;DHT22;38179;52.756;6.906;2023-04-03T08:34:21;3.90;99.90
52211;DHT22;38179;52.756;6.906;2023-04-03T08:36:47;3.90;99.90
52211;DHT22;38179;52.756;6.906;2023-04-03T08:39:13;3.90;99.90
52211;DHT22;38179;52.756;6.906;2023-04-03T08:41:39;4.00;99.90
52211;DHT22;38179;52.756;6.906;2023-04-03T08:44:15;4.10;99.90
52211;DHT22;38179;52.756;6.906;2023-04-03T08:51:57;4.10;99.90
52211;DHT22;38179;52.756;6.906;2023-04-03T08:54:29;4.20;99.90
52211;DHT22;38179;52.756;6.906;2023-04-03T08:56:56;4.30;99.90
52211;DHT22;38179;52.756;6.906;2023-04-03T08:59:24;4.30;99.90
52211;DHT22;38179;52.756;6.906;2023-04-03T09:01:51;4.50;99.90
52211;DHT22;38179;52.756;6.906;2023-04-03T09:04:17;4.50;99.90
52211;DHT22;38179;52.756;6.906;2023-04-03T09:06:45;4.60;99.90
52211;DHT22;38179;52.756;6.906;2023-04-03T09:09:13;4.60;99.90
52211;DHT22;38179;52.756;6.906;2023-04-03T09:11:44;4.60;99.90
52211;DHT22;38179;52.756;6.906;2023-04-03T09:14:33;4.70;99.90
52211;DHT22;38179;52.756;6.906;2023-04-03T09:17:07;4.80;99.90
52211;DHT22;38179;52.756;6.906;2023-04-03T09:19:36;4.90;99.90
52211;DHT22;38179;52.756;6.906;2023-04-03T09:24:39;5.00;99.90
52211;DHT22;38179;52.756;6.906;2023-04-03T09:27:06;5.00;99.90
52211;DHT22;38179;52.756;6.906;2023-04-03T09:29:33;5.00;99.90
52211;DHT22;38179;52.756;6.906;2023-04-03T09:32:01;5.00;99.90
52211;DHT22;38179;52.756;6.906;2023-04-03T09:34:28;5.10;99.90
52211;DHT22;38179;52.756;6.906;2023-04-03T09:36:56;5.10;99.90
52211;DHT22;38179;52.756;6.906;2023-04-03T09:39:24;5.20;99.90
52211;DHT22;38179;52.756;6.906;2023-04-03T09:42:02;5.30;99.90
52211;DHT22;38179;52.756;6.906;2023-04-03T09:44:30;5.40;99.90
52211;DHT22;38179;52.756;6.906;2023-04-03T09:46:56;5.50;99.90
52211;DHT22;38179;52.756;6.906;2023-04-03T09:49:22;5.60;99.90
52211;DHT22;38179;52.756;6.906;2023-04-03T09:51:47;5.60;99.90
52211;DHT22;38179;52.756;6.906;2023-04-03T09:54:24;5.60;99.90
52211;DHT22;38179;52.756;6.906;2023-04-03T09:56:51;5.60;99.90
52211;DHT22;38179;52.756;6.906;2023-04-03T09:59:18;5.60;99.90
52211;DHT22;38179;52.756;6.906;2023-04-03T10:01:56;5.70;99.90
52211;DHT22;38179;52.756;6.906;2023-04-03T10:04:22;5.70;99.90
52211;DHT22;38179;52.756;6.906;2023-04-03T10:06:52;5.80;99.90
52211;DHT22;38179;52.756;6.906;2023-04-03T10:09:20;5.90;99.90
52211;DHT22;38179;52.756;6.906;2023-04-03T10:14:31;6.00;99.90
52211;DHT22;38179;52.756;6.906;2023-04-03T10:19:51;6.10;99.90
52211;DHT22;38179;52.756;6.906;2023-04-03T10:27:26;6.30;99.90
52211;DHT22;38179;52.756;6.906;2023-04-03T10:30:02;6.30;99.90
52211;DHT22;38179;52.756;6.906;2023-04-03T10:32:49;6.40;99.90
52211;DHT22;38179;52.756;6.906;2023-04-03T10:35:20;6.40;99.90
52211;DHT22;38179;52.756;6.906;2023-04-03T10:37:54;6.50;99.90
52211;DHT22;38179;52.756;6.906;2023-04-03T10:40:34;6.50;99.90
52211;DHT22;38179;52.756;6.906;2023-04-03T10:43:25;6.60;99.90
52211;DHT22;38179;52.756;6.906;2023-04-03T10:46:02;6.60;99.90
52211;DHT22;38179;52.756;6.906;2023-04-03T10:59:01;6.80;99.90
52211;DHT22;38179;52.756;6.906;2023-04-03T11:01:31;6.90;99.90
52211;DHT22;38179;52.756;6.906;2023-04-03T11:03:59;6.80;99.90
52211;DHT22;38179;52.756;6.906;2023-04-03T11:06:27;6.90;99.90
52211;DHT22;38179;52.756;6.906;2023-04-03T11:08:57;6.90;99.90
52211;DHT22;38179;52.756;6.906;2023-04-03T11:11:30;6.90;99.90
52211;DHT22;38179;52.756;6.906;2023-04-03T11:16:27;6.90;99.90
52211;DHT22;38179;52.756;6.906;2023-04-03T11:22:26;6.80;99.90
52211;DHT22;38179;52.756;6.906;2023-04-03T11:24:25;6.80;99.90
52211;DHT22;38179;52.756;6.906;2023-04-03T11:26:52;6.80;99.90
52211;DHT22;38179;52.756;6.906;2023-04-03T11:29:20;6.80;99.90
52211;DHT22;38179;52.756;6.906;2023-04-03T11:34:36;7.00;99.90
52211;DHT22;38179;52.756;6.906;2023-04-03T11:39:58;7.20;99.90
52211;DHT22;38179;52.756;6.906;2023-04-03T11:42:31;7.40;99.90
52211;DHT22;38179;52.756;6.906;2023-04-03T11:47:44;7.50;99.90
52211;DHT22;38179;52.756;6.906;2023-04-03T11:52:55;7.70;99.90
52211;DHT22;38179;52.756;6.906;2023-04-03T12:05:48;7.60;99.90
52211;DHT22;38179;52.756;6.906;2023-04-03T12:21:14;7.60;99.90
52211;DHT22;38179;52.756;6.906;2023-04-03T12:26:22;7.80;99.90
52211;DHT22;38179;52.756;6.906;2023-04-03T12:28:51;8.00;99.90
52211;DHT22;38179;52.756;6.906;2023-04-03T12:31:19;8.00;99.90
52211;DHT22;38179;52.756;6.906;2023-04-03T12:33:57;8.10;99.90
52211;DHT22;38179;52.756;6.906;2023-04-03T12:36:32;8.30;99.90
52211;DHT22;38179;52.756;6.906;2023-04-03T12:39:03;8.30;99.90
52211;DHT22;38179;52.756;6.906;2023-04-03T12:41:43;8.40;99.90
52211;DHT22;38179;52.756;6.906;2023-04-03T12:44:16;8.40;99.90
52211;DHT22;38179;52.756;6.906;2023-04-03T12:46:48;8.50;99.90
52211;DHT22;38179;52.756;6.906;2023-04-03T12:49:26;8.40;99.90
52211;DHT22;38179;52.756;6.906;2023-04-03T12:51:56;8.30;99.90
52211;DHT22;38179;52.756;6.906;2023-04-03T12:57:13;8.30;99.90
52211;DHT22;38179;52.756;6.906;2023-04-03T12:59:41;8.50;99.90
52211;DHT22;38179;52.756;6.906;2023-04-03T13:04:43;8.60;99.90
52211;DHT22;38179;52.756;6.906;2023-04-03T13:07:30;8.70;99.90
52211;DHT22;38179;52.756;6.906;2023-04-03T13:10:00;8.70;99.90
52211;DHT22;38179;52.756;6.906;2023-04-03T13:12:26;8.80;99.90
52211;DHT22;38179;52.756;6.906;2023-04-03T13:14:53;8.90;99.90
52211;DHT22;38179;52.756;6.906;2023-04-03T13:17:19;8.80;99.90
52211;DHT22;38179;52.756;6.906;2023-04-03T13:19:45;8.80;99.90
52211;DHT22;38179;52.756;6.906;2023-04-03T13:24:59;8.80;99.90
52211;DHT22;38179;52.756;6.906;2023-04-03T13:27:26;8.90;99.90
52211;DHT22;38179;52.756;6.906;2023-04-03T13:29:53;9.00;99.90
52211;DHT22;38179;52.756;6.906;2023-04-03T13:32:20;9.20;99.90
52211;DHT22;38179;52.756;6.906;2023-04-03T13:34:47;9.30;99.90
52211;DHT22;38179;52.756;6.906;2023-04-03T13:37:23;9.40;99.90
52211;DHT22;38179;52.756;6.906;2023-04-03T13:39:57;9.40;99.90
52211;DHT22;38179;52.756;6.906;2023-04-03T13:42:28;9.50;99.90
52211;DHT22;38179;52.756;6.906;2023-04-03T13:47:40;9.30;99.90
52211;DHT22;38179;52.756;6.906;2023-04-03T13:57:55;9.40;99.90
52211;DHT22;38179;52.756;6.906;2023-04-03T14:00:26;9.60;99.90
52211;DHT22;38179;52.756;6.906;2023-04-03T14:02:54;9.60;99.90
52211;DHT22;38179;52.756;6.906;2023-04-03T14:05:19;9.70;99.90
52211;DHT22;38179;52.756;6.906;2023-04-03T14:07:46;9.70;99.90
52211;DHT22;38179;52.756;6.906;2023-04-03T14:10:12;9.60;99.90
52211;DHT22;38179;52.756;6.906;2023-04-03T14:12:38;9.50;99.90
52211;DHT22;38179;52.756;6.906;2023-04-03T14:15:20;9.40;99.90
52211;DHT22;38179;52.756;6.906;2023-04-03T14:17:49;9.30;99.90
52211;DHT22;38179;52.756;6.906;2023-04-03T14:20:17;9.20;99.90
52211;DHT22;38179;52.756;6.906;2023-04-03T14:22:44;9.20;99.90
52211;DHT22;38179;52.756;6.906;2023-04-03T14:25:10;9.20;99.90
52211;DHT22;38179;52.756;6.906;2023-04-03T14:27:37;9.10;99.90
52211;DHT22;38179;52.756;6.906;2023-04-03T14:30:03;9.20;99.90
52211;DHT22;38179;52.756;6.906;2023-04-03T14:32:29;9.30;99.90
52211;DHT22;38179;52.756;6.906;2023-04-03T14:34:55;9.30;99.90
52211;DHT22;38179;52.756;6.906;2023-04-03T14:37:23;9.30;99.90
52211;DHT22;38179;52.756;6.906;2023-04-03T14:39:50;9.20;99.90
52211;DHT22;38179;52.756;6.906;2023-04-03T14:42:17;9.30;99.90
52211;DHT22;38179;52.756;6.906;2023-04-03T14:44:43;9.30;99.90
52211;DHT22;38179;52.756;6.906;2023-04-03T14:47:12;9.30;99.90
52211;DHT22;38179;52.756;6.906;2023-04-03T14:49:42;9.40;99.90
52211;DHT22;38179;52.756;6.906;2023-04-03T14:52:16;9.30;99.90
52211;DHT22;38179;52.756;6.906;2023-04-03T14:54:43;9.30;99.90
52211;DHT22;38179;52.756;6.906;2023-04-03T14:57:09;9.30;99.90
52211;DHT22;38179;52.756;6.906;2023-04-03T14:59:37;9.20;99.90
52211;DHT22;38179;52.756;6.906;2023-04-03T15:02:05;9.30;99.90
52211;DHT22;38179;52.756;6.906;2023-04-03T15:04:35;9.20;99.90
52211;DHT22;38179;52.756;6.906;2023-04-03T15:07:00;9.30;99.90
52211;DHT22;38179;52.756;6.906;2023-04-03T15:09:26;9.30;99.90
52211;DHT22;38179;52.756;6.906;2023-04-03T15:11:53;9.30;99.90
52211;DHT22;38179;52.756;6.906;2023-04-03T15:14:19;9.30;99.90
52211;DHT22;38179;52.756;6.906;2023-04-03T15:16:45;9.30;99.90
52211;DHT22;38179;52.756;6.906;2023-04-03T15:19:10;9.20;99.90
52211;DHT22;38179;52.756;6.906;2023-04-03T15:21:37;9.10;99.90
52211;DHT22;38179;52.756;6.906;2023-04-03T15:24:02;9.10;99.90
52211;DHT22;38179;52.756;6.906;2023-04-03T15:26:28;9.10;99.90
52211;DHT22;38179;52.756;6.906;2023-04-03T15:28:54;9.10;99.90
52211;DHT22;38179;52.756;6.906;2023-04-03T15:31:20;9.10;99.90
52211;DHT22;38179;52.756;6.906;2023-04-03T15:33:46;9.10;99.90
52211;DHT22;38179;52.756;6.906;2023-04-03T15:36:11;9.30;99.90
52211;DHT22;38179;52.756;6.906;2023-04-03T15:38:37;9.30;99.90
52211;DHT22;38179;52.756;6.906;2023-04-03T15:41:03;9.30;99.90
52211;DHT22;38179;52.756;6.906;2023-04-03T15:43:29;9.40;99.90
52211;DHT22;38179;52.756;6.906;2023-04-03T15:45:58;9.40;99.90
52211;DHT22;38179;52.756;6.906;2023-04-03T15:48:25;9.40;99.90
52211;DHT22;38179;52.756;6.906;2023-04-03T15:50:51;9.50;99.90
52211;DHT22;38179;52.756;6.906;2023-04-03T15:53:17;9.50;99.90
52211;DHT22;38179;52.756;6.906;2023-04-03T15:55:43;9.70;99.90
52211;DHT22;38179;52.756;6.906;2023-04-03T15:58:08;9.60;99.90
52211;DHT22;38179;52.756;6.906;2023-04-03T16:00:34;9.60;99.90
52211;DHT22;38179;52.756;6.906;2023-04-03T16:03:11;9.60;99.90
52211;DHT22;38179;52.756;6.906;2023-04-03T16:05:38;9.60;99.90
52211;DHT22;38179;52.756;6.906;2023-04-03T16:08:07;9.60;99.90
52211;DHT22;38179;52.756;6.906;2023-04-03T16:10:34;9.70;99.90
52211;DHT22;38179;52.756;6.906;2023-04-03T16:12:59;9.70;99.90
52211;DHT22;38179;52.756;6.906;2023-04-03T16:15:25;9.80;99.90
52211;DHT22;38179;52.756;6.906;2023-04-03T16:17:52;9.90;99.90
52211;DHT22;38179;52.756;6.906;2023-04-03T16:20:18;10.30;99.90
52211;DHT22;38179;52.756;6.906;2023-04-03T16:22:44;10.00;99.90
52211;DHT22;38179;52.756;6.906;2023-04-03T16:25:10;10.00;99.90
52211;DHT22;38179;52.756;6.906;2023-04-03T16:27:36;9.90;99.90
52211;DHT22;38179;52.756;6.906;2023-04-03T16:30:06;9.90;99.90
52211;DHT22;38179;52.756;6.906;2023-04-03T16:32:32;9.80;99.90
52211;DHT22;38179;52.756;6.906;2023-04-03T16:34:58;9.70;99.90
52211;DHT22;38179;52.756;6.906;2023-04-03T16:37:24;9.70;99.90
52211;DHT22;38179;52.756;6.906;2023-04-03T16:39:50;9.70;99.90
52211;DHT22;38179;52.756;6.906;2023-04-03T16:42:16;9.70;99.90
52211;DHT22;38179;52.756;6.906;2023-04-03T16:44:43;9.80;99.90
52211;DHT22;38179;52.756;6.906;2023-04-03T16:47:09;9.80;99.90
52211;DHT22;38179;52.756;6.906;2023-04-03T16:49:36;9.90;99.90
52211;DHT22;38179;52.756;6.906;2023-04-03T16:52:02;9.80;99.90
52211;DHT22;38179;52.756;6.906;2023-04-03T16:54:28;9.70;99.90
52211;DHT22;38179;52.756;6.906;2023-04-03T16:56:54;9.50;99.90
52211;DHT22;38179;52.756;6.906;2023-04-03T16:59:20;9.40;99.90
52211;DHT22;38179;52.756;6.906;2023-04-03T17:01:46;9.30;99.90
52211;DHT22;38179;52.756;6.906;2023-04-03T17:04:11;9.20;99.90
52211;DHT22;38179;52.756;6.906;2023-04-03T17:06:38;9.10;99.90
52211;DHT22;38179;52.756;6.906;2023-04-03T17:09:04;9.00;99.90
52211;DHT22;38179;52.756;6.906;2023-04-03T17:11:30;8.90;99.90
52211;DHT22;38179;52.756;6.906;2023-04-03T17:13:56;8.80;99.90
52211;DHT22;38179;52.756;6.906;2023-04-03T17:16:22;8.70;99.90
52211;DHT22;38179;52.756;6.906;2023-04-03T17:18:48;8.60;99.90
52211;DHT22;38179;52.756;6.906;2023-04-03T17:21:14;8.50;99.90
52211;DHT22;38179;52.756;6.906;2023-04-03T17:23:40;8.50;99.90
52211;DHT22;38179;52.756;6.906;2023-04-03T17:26:07;8.40;99.90